createdAt,value
2023-05-02T00:00:05.100Z,9.4
2023-05-02T00:30:13.200Z,10.7
2023-05-02T01:00:13.968Z,9.4
2023-05-02T01:30:14.524Z,8.4
2023-05-02T02:00:21.779Z,7.9
2023-05-02T02:30:21.374Z,6.8
2023-05-02T03:00:21.826Z,8.1
2023-05-02T03:30:01.869Z,7.8
2023-05-02T04:00:03.142Z,7.6
2023-05-02T04:30:25.466Z,8.2
2023-05-02T05:00:10.459Z,7.9
2023-05-02T05:30:25.993Z,8.3
2023-05-02T06:00:03.547Z,8.6
2023-05-02T06:30:03.942Z,9.8
2023-05-02T07:00:25.612Z,10.4
2023-05-02T07:30:26.560Z,11.2
2023-05-02T08:30:22.617Z,14
2023-05-02T09:00:14.753Z,14.7
2023-05-02T09:30:00.219Z,15.9
2023-05-02T10:00:15.050Z,18.4
2023-05-02T10:30:01.042Z,16.9
2023-05-02T11:00:01.650Z,18.1
2023-05-02T11:30:23.727Z,18.2
2023-05-02T12:00:03.370Z,20.6
2023-05-02T12:30:03.303Z,21.5
2023-05-02T13:00:27.605Z,14.6
2023-05-02T13:30:08.971Z,16.5
2023-05-02T14:00:20.303Z,19.4
2023-05-02T14:30:21.598Z,17.2
2023-05-02T15:00:22.041Z,19.1
2023-05-02T15:30:06.940Z,14.9
2023-05-02T16:00:15.215Z,13.8
2023-05-02T16:30:15.082Z,14
2023-05-02T17:00:06.765Z,14
2023-05-02T18:00:02.859Z,13.4
2023-05-02T18:30:25.026Z,12.6
2023-05-02T19:00:09.818Z,11.5
2023-05-02T19:30:02.993Z,10.8
2023-05-02T20:00:18.142Z,9.7
2023-05-02T20:30:17.420Z,9.4
2023-05-02T21:00:25.211Z,9.9
2023-05-02T21:30:26.765Z,9.7
2023-05-02T22:30:28.181Z,8.7
2023-05-02T23:00:28.120Z,8.7
2023-05-02T23:30:14.478Z,8.2
